sensor_id;sensor_type;location;lat;lon;timestamp;pressure;altitude;pressure_sealevel;temperature;humidity
2841;BME280;53423;49.224;12.074;2023-05-19T00:00:38;98338.41;;;13.44;46.83
2841;BME280;53423;49.224;12.074;2023-05-19T00:03:06;98344.34;;;13.38;46.57
2841;BME280;53423;49.224;12.074;2023-05-19T00:05:35;98337.75;;;13.18;47.30
2841;BME280;53423;49.224;12.074;2023-05-19T00:08:15;98339.56;;;13.34;47.96
2841;BME280;53423;49.224;12.074;2023-05-19T00:10:45;98340.38;;;13.26;46.93
2841;BME280;53423;49.224;12.074;2023-05-19T00:13:13;98342.84;;;13.44;46.93
2841;BME280;53423;49.224;12.074;2023-05-19T00:15:41;98336.56;;;13.53;46.72
2841;BME280;53423;49.224;12.074;2023-05-19T00:18:12;98333.75;;;13.62;47.79
2841;BME280;53423;49.224;12.074;2023-05-19T00:20:42;98340.56;;;13.49;47.61
2841;BME280;53423;49.224;12.074;2023-05-19T00:23:10;98332.00;;;13.39;46.85
2841;BME280;53423;49.224;12.074;2023-05-19T00:25:38;98332.47;;;13.50;46.70
2841;BME280;53423;49.224;12.074;2023-05-19T00:28:07;98334.25;;;13.58;47.67
2841;BME280;53423;49.224;12.074;2023-05-19T00:30:35;98320.94;;;13.51;46.88
2841;BME280;53423;49.224;12.074;2023-05-19T00:33:03;98326.69;;;13.63;46.01
2841;BME280;53423;49.224;12.074;2023-05-19T00:35:31;98324.38;;;13.68;47.34
2841;BME280;53423;49.224;12.074;2023-05-19T00:37:59;98321.38;;;13.71;46.84
2841;BME280;53423;49.224;12.074;2023-05-19T00:40:28;98324.72;;;13.65;46.02
2841;BME280;53423;49.224;12.074;2023-05-19T00:42:59;98318.28;;;13.59;46.91
2841;BME280;53423;49.224;12.074;2023-05-19T00:45:28;98317.31;;;13.60;45.80
2841;BME280;53423;49.224;12.074;2023-05-19T00:47:56;98317.31;;;13.60;46.42
2841;BME280;53423;49.224;12.074;2023-05-19T00:50:24;98317.31;;;13.60;46.25
2841;BME280;53423;49.224;12.074;2023-05-19T00:52:53;98313.84;;;13.60;46.73
2841;BME280;53423;49.224;12.074;2023-05-19T00:55:22;98309.25;;;13.62;46.21
2841;BME280;53423;49.224;12.074;2023-05-19T00:57:54;98313.19;;;13.58;46.14
2841;BME280;53423;49.224;12.074;2023-05-19T01:00:23;98314.84;;;13.51;47.30
2841;BME280;53423;49.224;12.074;2023-05-19T01:02:52;98315.19;;;13.24;46.86
2841;BME280;53423;49.224;12.074;2023-05-19T01:05:21;98315.88;;;13.18;47.29
2841;BME280;53423;49.224;12.074;2023-05-19T01:07:49;98307.63;;;12.97;47.14
2841;BME280;53423;49.224;12.074;2023-05-19T01:10:20;98311.25;;;13.04;47.56
2841;BME280;53423;49.224;12.074;2023-05-19T01:12:48;98308.25;;;12.99;47.54
2841;BME280;53423;49.224;12.074;2023-05-19T01:15:16;98307.91;;;12.86;47.24
2841;BME280;53423;49.224;12.074;2023-05-19T01:17:48;98304.00;;;12.90;47.84
2841;BME280;53423;49.224;12.074;2023-05-19T01:20:27;98312.34;;;12.77;47.57
2841;BME280;53423;49.224;12.074;2023-05-19T01:23:17;98309.38;;;12.80;47.68
2841;BME280;53423;49.224;12.074;2023-05-19T01:26:08;98313.53;;;12.91;47.99
2841;BME280;53423;49.224;12.074;2023-05-19T01:28:56;98311.22;;;12.96;47.59
2841;BME280;53423;49.224;12.074;2023-05-19T01:31:32;98309.09;;;12.91;47.57
2841;BME280;53423;49.224;12.074;2023-05-19T01:34:01;98308.75;;;12.86;47.89
2841;BME280;53423;49.224;12.074;2023-05-19T01:36:32;98310.72;;;12.92;48.05
2841;BME280;53423;49.224;12.074;2023-05-19T01:39:01;98308.25;;;12.99;47.33
2841;BME280;53423;49.224;12.074;2023-05-19T01:41:29;98311.06;;;12.89;47.90
2841;BME280;53423;49.224;12.074;2023-05-19T01:43:58;98310.38;;;12.71;48.33
2841;BME280;53423;49.224;12.074;2023-05-19T01:46:26;98314.47;;;12.74;47.26
2841;BME280;53423;49.224;12.074;2023-05-19T01:48:56;98315.66;;;12.71;48.58
2841;BME280;53423;49.224;12.074;2023-05-19T01:51:25;98310.19;;;12.57;48.13
2841;BME280;53423;49.224;12.074;2023-05-19T01:53:53;98308.25;;;12.67;48.87
2841;BME280;53423;49.224;12.074;2023-05-19T01:56:29;98304.78;;;12.66;47.99
2841;BME280;53423;49.224;12.074;2023-05-19T01:59:02;98299.31;;;12.43;49.01
2841;BME280;53423;49.224;12.074;2023-05-19T02:01:42;98297.50;;;12.44;49.34
2841;BME280;53423;49.224;12.074;2023-05-19T02:04:24;98301.75;;;12.45;49.36
2841;BME280;53423;49.224;12.074;2023-05-19T02:07:00;98294.72;;;12.45;49.20
2841;BME280;53423;49.224;12.074;2023-05-19T02:09:37;98294.25;;;12.58;49.25
2841;BME280;53423;49.224;12.074;2023-05-19T02:12:10;98294.44;;;12.65;49.11
2841;BME280;53423;49.224;12.074;2023-05-19T02:14:44;98294.09;;;12.76;48.66
2841;BME280;53423;49.224;12.074;2023-05-19T02:17:17;98287.22;;;12.83;49.16
2841;BME280;53423;49.224;12.074;2023-05-19T02:19:48;98292.31;;;12.68;49.79
2841;BME280;53423;49.224;12.074;2023-05-19T02:22:16;98297.69;;;12.59;49.52
2841;BME280;53423;49.224;12.074;2023-05-19T02:24:44;98292.47;;;12.67;49.75
2841;BME280;53423;49.224;12.074;2023-05-19T02:27:13;98299.19;;;12.69;49.69
2841;BME280;53423;49.224;12.074;2023-05-19T02:29:41;98293.59;;;12.64;49.37
2841;BME280;53423;49.224;12.074;2023-05-19T02:32:09;98294.28;;;12.74;49.83
2841;BME280;53423;49.224;12.074;2023-05-19T02:34:37;98293.25;;;12.67;49.44
2841;BME280;53423;49.224;12.074;2023-05-19T02:37:09;98282.72;;;12.51;50.32
2841;BME280;53423;49.224;12.074;2023-05-19T02:39:38;98286.66;;;12.55;50.37
2841;BME280;53423;49.224;12.074;2023-05-19T02:42:05;98293.41;;;12.49;51.06
2841;BME280;53423;49.224;12.074;2023-05-19T02:44:33;98287.00;;;12.52;50.33
2841;BME280;53423;49.224;12.074;2023-05-19T02:47:01;98289.63;;;12.52;51.57
2841;BME280;53423;49.224;12.074;2023-05-19T02:49:29;98294.88;;;12.52;51.38
2841;BME280;53423;49.224;12.074;2023-05-19T02:52:01;98291.06;;;12.38;51.82
2841;BME280;53423;49.224;12.074;2023-05-19T02:54:31;98287.28;;;12.33;52.66
2841;BME280;53423;49.224;12.074;2023-05-19T02:57:01;98286.47;;;12.32;51.69
2841;BME280;53423;49.224;12.074;2023-05-19T02:59:29;98285.47;;;12.25;52.08
2841;BME280;53423;49.224;12.074;2023-05-19T03:01:58;98285.13;;;12.20;53.61
2841;BME280;53423;49.224;12.074;2023-05-19T03:04:27;98286.63;;;12.23;53.20
2841;BME280;53423;49.224;12.074;2023-05-19T03:06:56;98282.66;;;12.27;53.59
2841;BME280;53423;49.224;12.074;2023-05-19T03:09:24;98281.19;;;12.24;52.55
2841;BME280;53423;49.224;12.074;2023-05-19T03:11:53;98283.00;;;12.32;53.24
2841;BME280;53423;49.224;12.074;2023-05-19T03:14:21;98281.88;;;12.34;52.34
2841;BME280;53423;49.224;12.074;2023-05-19T03:16:50;98285.81;;;12.38;52.78
2841;BME280;53423;49.224;12.074;2023-05-19T03:19:18;98285.00;;;12.38;52.90
2841;BME280;53423;49.224;12.074;2023-05-19T03:21:46;98279.44;;;12.41;53.56
2841;BME280;53423;49.224;12.074;2023-05-19T03:24:15;98283.19;;;12.38;53.81
2841;BME280;53423;49.224;12.074;2023-05-19T03:26:43;98289.63;;;12.44;53.61
2841;BME280;53423;49.224;12.074;2023-05-19T03:29:12;98285.16;;;12.36;52.45
2841;BME280;53423;49.224;12.074;2023-05-19T03:31:40;98284.81;;;12.31;53.03
2841;BME280;53423;49.224;12.074;2023-05-19T03:34:09;98286.97;;;12.28;53.03
2841;BME280;53423;49.224;12.074;2023-05-19T03:36:37;98291.38;;;12.27;53.15
2841;BME280;53423;49.224;12.074;2023-05-19T03:39:05;98284.94;;;12.22;53.79
2841;BME280;53423;49.224;12.074;2023-05-19T03:41:33;98285.13;;;12.28;53.50
2841;BME280;53423;49.224;12.074;2023-05-19T03:44:01;98292.22;;;12.28;53.15
2841;BME280;53423;49.224;12.074;2023-05-19T03:46:30;98291.19;;;12.21;52.92
2841;BME280;53423;49.224;12.074;2023-05-19T03:48:58;98291.88;;;12.31;52.47
2841;BME280;53423;49.224;12.074;2023-05-19T03:51:26;98287.22;;;12.17;54.12
2841;BME280;53423;49.224;12.074;2023-05-19T03:53:55;98295.47;;;12.30;53.13
2841;BME280;53423;49.224;12.074;2023-05-19T03:56:24;98292.75;;;12.39;53.58
2841;BME280;53423;49.224;12.074;2023-05-19T03:58:53;98295.38;;;12.47;53.88
2841;BME280;53423;49.224;12.074;2023-05-19T04:01:21;98305.75;;;12.57;54.45
2841;BME280;53423;49.224;12.074;2023-05-19T04:03:50;98301.97;;;12.60;54.20
2841;BME280;53423;49.224;12.074;2023-05-19T04:06:18;98299.69;;;12.65;53.87
2841;BME280;53423;49.224;12.074;2023-05-19T04:08:46;98298.03;;;12.56;53.45
2841;BME280;53423;49.224;12.074;2023-05-19T04:11:14;98299.63;;;12.40;53.06
2841;BME280;53423;49.224;12.074;2023-05-19T04:13:42;98300.97;;;12.44;53.79
2841;BME280;53423;49.224;12.074;2023-05-19T04:16:10;98300.81;;;12.54;53.66
2841;BME280;53423;49.224;12.074;2023-05-19T04:18:38;98298.03;;;12.56;53.80
2841;BME280;53423;49.224;12.074;2023-05-19T04:21:08;98303.25;;;12.47;54.18
2841;BME280;53423;49.224;12.074;2023-05-19T04:23:36;98296.72;;;12.52;53.29
2841;BME280;53423;49.224;12.074;2023-05-19T04:26:04;98297.06;;;12.57;53.93
2841;BME280;53423;49.224;12.074;2023-05-19T04:28:32;98301.13;;;12.43;54.01
2841;BME280;53423;49.224;12.074;2023-05-19T04:31:04;98295.53;;;12.46;54.63
2841;BME280;53423;49.224;12.074;2023-05-19T04:33:36;98299.31;;;12.43;53.55
2841;BME280;53423;49.224;12.074;2023-05-19T04:36:05;98300.28;;;12.34;53.71
2841;BME280;53423;49.224;12.074;2023-05-19T04:38:37;98306.97;;;12.21;53.52
2841;BME280;53423;49.224;12.074;2023-05-19T04:41:06;98300.22;;;12.18;54.20
2841;BME280;53423;49.224;12.074;2023-05-19T04:43:37;98295.13;;;12.25;54.79
2841;BME280;53423;49.224;12.074;2023-05-19T04:46:07;98301.22;;;12.25;54.37
2841;BME280;53423;49.224;12.074;2023-05-19T04:48:39;98302.25;;;12.32;54.83
2841;BME280;53423;49.224;12.074;2023-05-19T04:51:08;98303.88;;;12.41;54.01
2841;BME280;53423;49.224;12.074;2023-05-19T04:53:41;98299.00;;;12.46;53.61
2841;BME280;53423;49.224;12.074;2023-05-19T04:56:09;98304.88;;;12.40;53.77
2841;BME280;53423;49.224;12.074;2023-05-19T04:58:41;98304.78;;;12.58;53.09
2841;BME280;53423;49.224;12.074;2023-05-19T05:01:10;98305.56;;;12.50;54.29
2841;BME280;53423;49.224;12.074;2023-05-19T05:03:39;98309.53;;;12.46;53.34
2841;BME280;53423;49.224;12.074;2023-05-19T05:06:07;98300.03;;;12.70;53.41
2841;BME280;53423;49.224;12.074;2023-05-19T05:08:36;98301.31;;;12.74;52.98
2841;BME280;53423;49.224;12.074;2023-05-19T05:11:08;98308.41;;;12.89;53.63
2841;BME280;53423;49.224;12.074;2023-05-19T05:13:36;98307.75;;;12.87;53.08
2841;BME280;53423;49.224;12.074;2023-05-19T05:16:05;98301.53;;;12.96;52.35
2841;BME280;53423;49.224;12.074;2023-05-19T05:18:34;98306.00;;;13.20;53.07
2841;BME280;53423;49.224;12.074;2023-05-19T05:21:05;98299.56;;;13.22;52.00
2841;BME280;53423;49.224;12.074;2023-05-19T05:23:34;98304.97;;;12.89;52.46
2841;BME280;53423;49.224;12.074;2023-05-19T05:26:09;98292.63;;;12.89;52.73
2841;BME280;53423;49.224;12.074;2023-05-19T05:28:42;98282.50;;;13.10;52.25
2841;BME280;53423;49.224;12.074;2023-05-19T05:31:10;98294.97;;;13.24;51.84
2841;BME280;53423;49.224;12.074;2023-05-19T05:33:38;98285.56;;;13.38;51.29
2841;BME280;53423;49.224;12.074;2023-05-19T05:36:07;98278.66;;;13.45;51.51
2841;BME280;53423;49.224;12.074;2023-05-19T05:38:35;98276.97;;;13.60;51.03
2841;BME280;53423;49.224;12.074;2023-05-19T05:41:03;98276.47;;;13.56;50.39
2841;BME280;53423;49.224;12.074;2023-05-19T05:43:32;98278.63;;;13.53;51.83
2841;BME280;53423;49.224;12.074;2023-05-19T05:46:00;98281.44;;;13.51;50.67
2841;BME280;53423;49.224;12.074;2023-05-19T05:48:29;98285.63;;;13.85;49.46
2841;BME280;53423;49.224;12.074;2023-05-19T05:50:58;98280.97;;;14.03;50.24
2841;BME280;53423;49.224;12.074;2023-05-19T05:53:29;98284.69;;;14.08;49.98
2841;BME280;53423;49.224;12.074;2023-05-19T05:55:58;98288.69;;;14.43;48.76
2841;BME280;53423;49.224;12.074;2023-05-19T05:58:26;98286.59;;;14.30;49.16
2841;BME280;53423;49.224;12.074;2023-05-19T06:00:56;98288.94;;;14.25;49.01
2841;BME280;53423;49.224;12.074;2023-05-19T06:03:24;98288.41;;;14.38;48.80
2841;BME280;53423;49.224;12.074;2023-05-19T06:05:52;98288.59;;;14.59;48.26
2841;BME280;53423;49.224;12.074;2023-05-19T06:08:20;98290.88;;;14.39;49.16
2841;BME280;53423;49.224;12.074;2023-05-19T06:10:48;98286.69;;;14.45;48.73
2841;BME280;53423;49.224;12.074;2023-05-19T06:13:16;98282.00;;;14.24;49.58
2841;BME280;53423;49.224;12.074;2023-05-19T06:15:48;98273.38;;;13.45;50.26
2841;BME280;53423;49.224;12.074;2023-05-19T06:18:17;98278.44;;;13.62;50.02
2841;BME280;53423;49.224;12.074;2023-05-19T06:20:45;98276.78;;;13.78;49.93
2841;BME280;53423;49.224;12.074;2023-05-19T06:23:13;98271.47;;;13.86;49.24
2841;BME280;53423;49.224;12.074;2023-05-19T06:25:41;98263.25;;;14.19;48.61
2841;BME280;53423;49.224;12.074;2023-05-19T06:28:09;98269.19;;;14.13;48.39
2841;BME280;53423;49.224;12.074;2023-05-19T06:30:37;98265.50;;;14.30;48.61
2841;BME280;53423;49.224;12.074;2023-05-19T06:33:05;98266.91;;;14.10;49.70
2841;BME280;53423;49.224;12.074;2023-05-19T06:35:35;98268.88;;;14.16;48.94
2841;BME280;53423;49.224;12.074;2023-05-19T06:38:03;98264.53;;;14.31;49.46
2841;BME280;53423;49.224;12.074;2023-05-19T06:40:31;98261.25;;;14.52;49.09
2841;BME280;53423;49.224;12.074;2023-05-19T06:42:59;98275.81;;;14.48;48.37
2841;BME280;53423;49.224;12.074;2023-05-19T06:45:27;98273.47;;;14.53;49.28
2841;BME280;53423;49.224;12.074;2023-05-19T06:47:55;98276.75;;;14.77;48.49
2841;BME280;53423;49.224;12.074;2023-05-19T06:50:24;98263.41;;;14.93;47.54
2841;BME280;53423;49.224;12.074;2023-05-19T06:52:53;98269.59;;;15.09;47.58
2841;BME280;53423;49.224;12.074;2023-05-19T06:55:23;98270.53;;;14.93;47.53
2841;BME280;53423;49.224;12.074;2023-05-19T06:57:50;98273.53;;;15.27;46.84
2841;BME280;53423;49.224;12.074;2023-05-19T07:00:18;98280.97;;;15.09;47.73
2841;BME280;53423;49.224;12.074;2023-05-19T07:02:49;98266.25;;;15.29;47.34
2841;BME280;53423;49.224;12.074;2023-05-19T07:05:18;98268.81;;;15.89;45.58
2841;BME280;53423;49.224;12.074;2023-05-19T07:07:46;98269.88;;;15.94;45.45
2841;BME280;53423;49.224;12.074;2023-05-19T07:10:15;98263.13;;;15.92;44.91
2841;BME280;53423;49.224;12.074;2023-05-19T07:12:43;98256.16;;;16.35;44.04
2841;BME280;53423;49.224;12.074;2023-05-19T07:15:11;98257.59;;;15.72;44.29
2841;BME280;53423;49.224;12.074;2023-05-19T07:17:39;98255.31;;;16.49;44.01
2841;BME280;53423;49.224;12.074;2023-05-19T07:20:08;98251.34;;;16.80;42.83
2841;BME280;53423;49.224;12.074;2023-05-19T07:22:36;98255.56;;;17.17;41.48
2841;BME280;53423;49.224;12.074;2023-05-19T07:25:06;98250.81;;;17.95;40.57
2841;BME280;53423;49.224;12.074;2023-05-19T07:27:35;98244.56;;;19.09;38.01
2841;BME280;53423;49.224;12.074;2023-05-19T07:30:03;98243.00;;;18.34;39.04
2841;BME280;53423;49.224;12.074;2023-05-19T07:32:31;98236.22;;;19.18;37.17
2841;BME280;53423;49.224;12.074;2023-05-19T07:34:59;98232.97;;;18.30;37.68
2841;BME280;53423;49.224;12.074;2023-05-19T07:37:28;98233.28;;;18.01;39.94
2841;BME280;53423;49.224;12.074;2023-05-19T07:39:56;98227.59;;;18.71;37.38
2841;BME280;53423;49.224;12.074;2023-05-19T07:42:24;98226.19;;;18.81;37.88
2841;BME280;53423;49.224;12.074;2023-05-19T07:44:53;98231.28;;;18.96;37.43
2841;BME280;53423;49.224;12.074;2023-05-19T07:47:21;98227.19;;;18.74;38.14
2841;BME280;53423;49.224;12.074;2023-05-19T07:49:49;98222.16;;;18.31;39.44
2841;BME280;53423;49.224;12.074;2023-05-19T07:52:17;98229.38;;;18.50;39.23
2841;BME280;53423;49.224;12.074;2023-05-19T07:54:45;98213.56;;;20.06;37.14
2841;BME280;53423;49.224;12.074;2023-05-19T07:57:13;98213.94;;;20.03;36.84
2841;BME280;53423;49.224;12.074;2023-05-19T07:59:41;98214.31;;;19.42;36.08
2841;BME280;53423;49.224;12.074;2023-05-19T08:02:10;98217.91;;;19.87;37.30
2841;BME280;53423;49.224;12.074;2023-05-19T08:04:38;98212.00;;;20.67;36.05
2841;BME280;53423;49.224;12.074;2023-05-19T08:07:06;98221.28;;;20.89;33.75
2841;BME280;53423;49.224;12.074;2023-05-19T08:09:34;98208.50;;;22.96;31.29
2841;BME280;53423;49.224;12.074;2023-05-19T08:12:03;98207.97;;;23.29;29.83
2841;BME280;53423;49.224;12.074;2023-05-19T08:14:31;98209.47;;;23.71;29.57
2841;BME280;53423;49.224;12.074;2023-05-19T08:17:00;98196.56;;;23.68;29.15
2841;BME280;53423;49.224;12.074;2023-05-19T08:19:35;98206.91;;;22.66;31.12
2841;BME280;53423;49.224;12.074;2023-05-19T08:22:03;98214.31;;;21.19;33.13
2841;BME280;53423;49.224;12.074;2023-05-19T08:24:31;98213.72;;;21.60;32.73
2841;BME280;53423;49.224;12.074;2023-05-19T08:27:00;98209.56;;;21.21;33.31
2841;BME280;53423;49.224;12.074;2023-05-19T08:29:28;98197.66;;;20.37;34.35
2841;BME280;53423;49.224;12.074;2023-05-19T08:31:56;98199.47;;;20.74;34.00
2841;BME280;53423;49.224;12.074;2023-05-19T08:34:25;98209.81;;;19.10;36.00
2841;BME280;53423;49.224;12.074;2023-05-19T08:36:55;98206.97;;;19.05;36.86
2841;BME280;53423;49.224;12.074;2023-05-19T08:39:23;98208.78;;;18.59;37.72
2841;BME280;53423;49.224;12.074;2023-05-19T08:41:52;98203.09;;;18.88;38.34
2841;BME280;53423;49.224;12.074;2023-05-19T08:44:20;98192.03;;;21.07;34.18
2841;BME280;53423;49.224;12.074;2023-05-19T08:46:50;98189.72;;;22.44;33.78
2841;BME280;53423;49.224;12.074;2023-05-19T08:49:26;98189.84;;;21.47;32.00
2841;BME280;53423;49.224;12.074;2023-05-19T08:52:01;98193.44;;;20.16;35.01
2841;BME280;53423;49.224;12.074;2023-05-19T08:54:45;98190.81;;;19.39;36.52
2841;BME280;53423;49.224;12.074;2023-05-19T08:57:16;98183.84;;;19.45;37.29
2841;BME280;53423;49.224;12.074;2023-05-19T08:59:45;98182.16;;;19.63;36.29
2841;BME280;53423;49.224;12.074;2023-05-19T09:02:15;98181.78;;;19.53;36.53
2841;BME280;53423;49.224;12.074;2023-05-19T09:04:44;98178.94;;;18.70;37.75
2841;BME280;53423;49.224;12.074;2023-05-19T09:07:15;98173.03;;;18.88;37.25
2841;BME280;53423;49.224;12.074;2023-05-19T09:09:44;98176.31;;;18.90;37.30
2841;BME280;53423;49.224;12.074;2023-05-19T09:12:13;98173.63;;;19.42;36.52
2841;BME280;53423;49.224;12.074;2023-05-19T09:14:41;98183.88;;;19.06;37.92
2841;BME280;53423;49.224;12.074;2023-05-19T09:17:09;98179.56;;;18.85;38.07
2841;BME280;53423;49.224;12.074;2023-05-19T09:19:43;98173.41;;;19.24;37.41
2841;BME280;53423;49.224;12.074;2023-05-19T09:22:15;98166.41;;;19.68;37.01
2841;BME280;53423;49.224;12.074;2023-05-19T09:24:44;98168.16;;;19.88;36.67
2841;BME280;53423;49.224;12.074;2023-05-19T09:27:14;98156.03;;;19.98;36.55
2841;BME280;53423;49.224;12.074;2023-05-19T09:29:42;98152.06;;;20.14;37.77
2841;BME280;53423;49.224;12.074;2023-05-19T09:32:10;98151.53;;;20.36;36.87
2841;BME280;53423;49.224;12.074;2023-05-19T09:34:39;98154.25;;;20.85;35.34
2841;BME280;53423;49.224;12.074;2023-05-19T09:37:08;98154.53;;;20.53;36.82
2841;BME280;53423;49.224;12.074;2023-05-19T09:39:37;98166.41;;;20.19;36.39
2841;BME280;53423;49.224;12.074;2023-05-19T09:42:05;98155.50;;;20.27;36.15
2841;BME280;53423;49.224;12.074;2023-05-19T09:44:34;98155.91;;;20.31;36.53
2841;BME280;53423;49.224;12.074;2023-05-19T09:47:02;98155.50;;;19.83;37.05
2841;BME280;53423;49.224;12.074;2023-05-19T09:49:30;98144.25;;;19.74;37.19
2841;BME280;53423;49.224;12.074;2023-05-19T09:52:01;98145.97;;;20.07;37.55
2841;BME280;53423;49.224;12.074;2023-05-19T09:54:29;98147.63;;;20.01;36.64
2841;BME280;53423;49.224;12.074;2023-05-19T09:57:00;98145.91;;;20.13;36.69
2841;BME280;53423;49.224;12.074;2023-05-19T09:59:30;98142.72;;;20.42;35.86
2841;BME280;53423;49.224;12.074;2023-05-19T10:02:00;98129.84;;;20.64;35.00
2841;BME280;53423;49.224;12.074;2023-05-19T10:04:29;98116.94;;;22.30;32.31
2841;BME280;53423;49.224;12.074;2023-05-19T10:06:58;98121.97;;;23.02;32.93
2841;BME280;53423;49.224;12.074;2023-05-19T10:09:26;98120.84;;;22.46;32.59
2841;BME280;53423;49.224;12.074;2023-05-19T10:11:56;98119.50;;;21.77;32.71
2841;BME280;53423;49.224;12.074;2023-05-19T10:14:27;98113.19;;;20.68;35.18
2841;BME280;53423;49.224;12.074;2023-05-19T10:16:57;98115.13;;;20.86;35.84
2841;BME280;53423;49.224;12.074;2023-05-19T10:19:30;98105.41;;;21.70;34.36
2841;BME280;53423;49.224;12.074;2023-05-19T10:21:58;98102.66;;;22.66;32.69
2841;BME280;53423;49.224;12.074;2023-05-19T10:24:26;98104.03;;;24.90;29.09
2841;BME280;53423;49.224;12.074;2023-05-19T10:26:56;98105.66;;;25.29;27.25
2841;BME280;53423;49.224;12.074;2023-05-19T10:29:30;98094.09;;;26.10;26.00
2841;BME280;53423;49.224;12.074;2023-05-19T10:32:09;98087.41;;;26.12;26.03
2841;BME280;53423;49.224;12.074;2023-05-19T10:34:54;98102.41;;;24.72;28.16
2841;BME280;53423;49.224;12.074;2023-05-19T10:37:30;98098.56;;;23.95;28.69
2841;BME280;53423;49.224;12.074;2023-05-19T10:40:05;98105.25;;;22.31;32.38
2841;BME280;53423;49.224;12.074;2023-05-19T10:42:43;98096.88;;;22.28;32.01
2841;BME280;53423;49.224;12.074;2023-05-19T10:45:18;98095.25;;;22.50;31.16
2841;BME280;53423;49.224;12.074;2023-05-19T10:47:49;98092.78;;;22.89;30.49
2841;BME280;53423;49.224;12.074;2023-05-19T10:50:19;98088.81;;;22.80;31.22
2841;BME280;53423;49.224;12.074;2023-05-19T10:52:51;98085.69;;;23.41;29.62
2841;BME280;53423;49.224;12.074;2023-05-19T10:55:45;98086.53;;;23.70;30.02
2841;BME280;53423;49.224;12.074;2023-05-19T10:58:14;98081.97;;;23.19;30.49
2841;BME280;53423;49.224;12.074;2023-05-19T11:00:43;98083.66;;;22.44;30.81
2841;BME280;53423;49.224;12.074;2023-05-19T11:03:12;98081.72;;;23.20;31.26
2841;BME280;53423;49.224;12.074;2023-05-19T11:05:40;98080.88;;;24.22;31.09
2841;BME280;53423;49.224;12.074;2023-05-19T11:08:11;98070.94;;;25.39;29.73
2841;BME280;53423;49.224;12.074;2023-05-19T11:10:42;98065.56;;;26.04;28.26
2841;BME280;53423;49.224;12.074;2023-05-19T11:13:18;98072.47;;;25.35;27.70
2841;BME280;53423;49.224;12.074;2023-05-19T11:15:49;98070.84;;;24.63;28.86
2841;BME280;53423;49.224;12.074;2023-05-19T11:18:18;98082.59;;;23.72;30.09
2841;BME280;53423;49.224;12.074;2023-05-19T11:20:54;98076.03;;;22.82;31.03
2841;BME280;53423;49.224;12.074;2023-05-19T11:23:24;98070.66;;;22.06;32.91
2841;BME280;53423;49.224;12.074;2023-05-19T11:25:52;98080.44;;;21.65;33.20
2841;BME280;53423;49.224;12.074;2023-05-19T11:28:21;98072.38;;;21.17;35.03
2841;BME280;53423;49.224;12.074;2023-05-19T11:30:55;98068.75;;;21.48;34.35
2841;BME280;53423;49.224;12.074;2023-05-19T11:33:27;98060.19;;;21.75;34.20
2841;BME280;53423;49.224;12.074;2023-05-19T11:35:59;98062.56;;;21.65;34.20
2841;BME280;53423;49.224;12.074;2023-05-19T11:38:27;98057.59;;;21.87;33.87
2841;BME280;53423;49.224;12.074;2023-05-19T11:40:56;98058.94;;;22.07;33.05
2841;BME280;53423;49.224;12.074;2023-05-19T11:43:24;98055.94;;;23.03;32.50
2841;BME280;53423;49.224;12.074;2023-05-19T11:45:54;98065.88;;;23.54;31.61
2841;BME280;53423;49.224;12.074;2023-05-19T11:48:23;98056.47;;;24.69;30.20
2841;BME280;53423;49.224;12.074;2023-05-19T11:50:51;98057.53;;;24.84;30.56
2841;BME280;53423;49.224;12.074;2023-05-19T11:53:19;98065.53;;;23.50;31.65
2841;BME280;53423;49.224;12.074;2023-05-19T11:55:48;98059.00;;;25.51;28.98
2841;BME280;53423;49.224;12.074;2023-05-19T11:58:16;98047.53;;;26.04;27.27
2841;BME280;53423;49.224;12.074;2023-05-19T12:00:44;98046.63;;;24.58;28.71
2841;BME280;53423;49.224;12.074;2023-05-19T12:03:20;98050.94;;;22.83;31.18
2841;BME280;53423;49.224;12.074;2023-05-19T12:05:48;98047.41;;;23.17;31.28
2841;BME280;53423;49.224;12.074;2023-05-19T12:08:17;98051.81;;;22.43;33.24
2841;BME280;53423;49.224;12.074;2023-05-19T12:10:47;98059.75;;;21.42;33.88
2841;BME280;53423;49.224;12.074;2023-05-19T12:13:15;98064.91;;;20.83;34.76
2841;BME280;53423;49.224;12.074;2023-05-19T12:15:43;98053.59;;;20.87;35.98
2841;BME280;53423;49.224;12.074;2023-05-19T12:18:11;98059.91;;;21.47;34.45
2841;BME280;53423;49.224;12.074;2023-05-19T12:20:41;98061.31;;;21.68;33.32
2841;BME280;53423;49.224;12.074;2023-05-19T12:23:09;98061.13;;;21.33;34.52
2841;BME280;53423;49.224;12.074;2023-05-19T12:25:38;98054.63;;;20.86;35.37
2841;BME280;53423;49.224;12.074;2023-05-19T12:28:06;98052.28;;;20.96;36.42
2841;BME280;53423;49.224;12.074;2023-05-19T12:30:34;98046.38;;;21.49;35.06
2841;BME280;53423;49.224;12.074;2023-05-19T12:33:02;98050.50;;;21.45;35.28
2841;BME280;53423;49.224;12.074;2023-05-19T12:35:31;98046.38;;;21.31;35.29
2841;BME280;53423;49.224;12.074;2023-05-19T12:38:05;98052.66;;;21.36;35.14
2841;BME280;53423;49.224;12.074;2023-05-19T12:40:33;98049.41;;;21.34;36.29
2841;BME280;53423;49.224;12.074;2023-05-19T12:43:02;98047.09;;;21.56;36.28
2841;BME280;53423;49.224;12.074;2023-05-19T12:45:33;98039.69;;;21.40;35.04
2841;BME280;53423;49.224;12.074;2023-05-19T12:48:02;98041.78;;;21.38;35.02
2841;BME280;53423;49.224;12.074;2023-05-19T12:50:32;98039.84;;;21.45;36.12
2841;BME280;53423;49.224;12.074;2023-05-19T12:53:01;98039.69;;;21.04;36.16
2841;BME280;53423;49.224;12.074;2023-05-19T12:55:36;98032.16;;;21.66;37.22
2841;BME280;53423;49.224;12.074;2023-05-19T12:58:06;98040.53;;;21.40;36.02
2841;BME280;53423;49.224;12.074;2023-05-19T13:00:39;98037.13;;;21.15;35.56
2841;BME280;53423;49.224;12.074;2023-05-19T13:03:13;98030.91;;;21.03;36.61
2841;BME280;53423;49.224;12.074;2023-05-19T13:05:43;98025.69;;;21.92;35.88
2841;BME280;53423;49.224;12.074;2023-05-19T13:08:13;98024.00;;;22.09;36.92
2841;BME280;53423;49.224;12.074;2023-05-19T13:10:44;98014.00;;;22.16;36.38
2841;BME280;53423;49.224;12.074;2023-05-19T13:13:12;98011.25;;;22.34;36.05